Time;durP1;ratioP1;P1;durP2;ratioP2;P2;SDS_P1;SDS_P2;PMS_P1;PMS_P2;Temp;Humidity;BMP_temperature;BMP_pressure;BME280_temperature;BME280_humidity;BME280_pressure;Samples;Min_cycle;Max_cycle;Signal;HPM_P1;HPM_P2
2021/06/30 00:00:26;;;;;;;16.60;14.90;;;;;;;18.70;nan;100015.91;5063523;28;20072;-79
2021/06/30 00:02:53;;;;;;;15.82;14.13;;;;;;;18.59;nan;100024.59;5081243;28;20083;-80
2021/06/30 00:05:24;;;;;;;15.38;13.80;;;;;;;18.56;nan;100022.97;5070260;28;20047;-80
2021/06/30 00:07:56;;;;;;;15.15;13.75;;;;;;;18.50;nan;100022.50;5086639;28;20499;-80
2021/06/30 00:10:27;;;;;;;14.50;13.00;;;;;;;18.44;nan;100026.44;5066958;28;20055;-80
2021/06/30 00:12:59;;;;;;;14.93;13.43;;;;;;;18.45;nan;100029.97;5067452;28;20058;-79
2021/06/30 00:15:31;;;;;;;16.25;14.52;;;;;;;18.49;nan;100032.31;5070221;28;20040;-79
2021/06/30 00:18:03;;;;;;;16.65;14.95;;;;;;;18.55;nan;100031.09;5081160;28;20044;-80
2021/06/30 00:20:35;;;;;;;17.05;15.30;;;;;;;18.59;nan;100013.03;5074129;28;20113;-80
2021/06/30 00:23:08;;;;;;;16.15;14.63;;;;;;;18.49;nan;100020.78;5067306;28;20119;-79
2021/06/30 00:25:35;;;;;;;17.42;15.60;;;;;;;18.53;nan;100019.63;5052406;28;20206;-80
2021/06/30 00:28:02;;;;;;;17.92;16.15;;;;;;;18.62;nan;100012.84;5068811;28;20036;-79
2021/06/30 00:30:29;;;;;;;17.40;15.57;;;;;;;18.59;nan;100018.41;5063428;28;20081;-80
2021/06/30 00:32:56;;;;;;;15.60;14.07;;;;;;;18.50;nan;100020.69;5087160;28;20040;-80
2021/06/30 00:35:23;;;;;;;17.20;15.35;;;;;;;18.50;nan;100028.72;5082843;28;20053;-79
2021/06/30 00:37:55;;;;;;;16.88;15.20;;;;;;;18.53;nan;100023.16;5073050;28;20036;-79
2021/06/30 00:40:26;;;;;;;15.90;14.30;;;;;;;18.50;nan;100027.88;5079020;28;20064;-80
2021/06/30 00:42:58;;;;;;;17.00;15.20;;;;;;;18.48;nan;100019.91;5064847;28;20121;-79
2021/06/30 00:45:29;;;;;;;19.38;15.45;;;;;;;18.56;nan;100014.94;5066366;28;20047;-81
2021/06/30 00:48:01;;;;;;;15.63;14.13;;;;;;;18.52;nan;99999.19;5068306;28;20623;-79
2021/06/30 00:50:33;;;;;;;16.33;14.65;;;;;;;18.45;nan;100003.22;5051334;28;20121;-78
2021/06/30 00:52:59;;;;;;;14.73;13.23;;;;;;;18.46;nan;100008.47;5082644;28;20040;-78
2021/06/30 00:55:26;;;;;;;16.92;14.95;;;;;;;18.49;nan;99997.56;5053706;28;20036;-80
2021/06/30 00:57:58;;;;;;;16.25;14.55;;;;;;;18.47;nan;99999.47;5057797;28;20036;-80
2021/06/30 01:00:25;;;;;;;15.45;13.82;;;;;;;18.41;nan;99999.00;5078870;28;20083;-80
2021/06/30 01:02:56;;;;;;;15.93;14.32;;;;;;;18.46;nan;100000.44;5073036;28;20044;-80
2021/06/30 01:05:28;;;;;;;15.40;13.80;;;;;;;18.46;nan;99996.91;5052440;28;20048;-80
2021/06/30 01:08:00;;;;;;;15.85;14.25;;;;;;;18.43;nan;99997.97;5070412;28;20037;-80
2021/06/30 01:10:31;;;;;;;16.27;14.68;;;;;;;18.36;nan;99996.63;5050176;28;20043;-79
2021/06/30 01:13:05;;;;;;;15.23;13.63;;;;;;;18.25;nan;99981.28;5105809;27;20043;-79
2021/06/30 01:15:55;;;;;;;14.88;13.40;;;;;;;18.23;nan;99987.66;5064728;28;20059;-79
2021/06/30 01:18:31;;;;;;;15.65;13.88;;;;;;;18.24;nan;99979.56;5087056;28;20043;-80
2021/06/30 01:21:00;;;;;;;16.20;14.60;;;;;;;18.19;nan;99984.31;5068840;28;20056;-79
2021/06/30 01:23:31;;;;;;;15.27;13.70;;;;;;;18.14;nan;99972.19;5087314;28;20036;-79
2021/06/30 01:26:04;;;;;;;15.57;14.02;;;;;;;18.08;nan;99978.78;5086968;28;20056;-80
2021/06/30 01:28:36;;;;;;;15.15;13.63;;;;;;;18.02;nan;99964.94;5047418;28;20048;-79
2021/06/30 01:31:08;;;;;;;15.77;14.18;;;;;;;18.01;nan;99969.44;5085206;28;20036;-78
2021/06/30 01:33:40;;;;;;;18.63;14.65;;;;;;;18.03;nan;99964.84;5067235;28;20047;-78
2021/06/30 01:36:11;;;;;;;16.45;14.65;;;;;;;17.96;nan;99967.03;5068298;28;20039;-79
2021/06/30 01:38:43;;;;;;;15.52;14.02;;;;;;;17.89;nan;99960.34;5069813;28;20035;-80
2021/06/30 01:41:14;;;;;;;15.25;13.65;;;;;;;17.81;nan;99956.44;5071769;28;20054;-79
2021/06/30 01:43:47;;;;;;;15.43;13.88;;;;;;;17.76;nan;99962.06;5074809;28;20045;-79
2021/06/30 01:46:18;;;;;;;16.83;15.02;;;;;;;17.78;nan;99965.50;5082046;28;20041;-80
2021/06/30 01:48:50;;;;;;;14.95;13.45;;;;;;;17.70;nan;99963.28;5085758;28;20032;-79
2021/06/30 01:51:22;;;;;;;15.13;13.63;;;;;;;17.65;nan;99969.81;5051531;28;20131;-80
2021/06/30 01:53:58;;;;;;;14.43;13.02;;;;;;;17.66;nan;99969.75;5089685;28;20051;-79
2021/06/30 01:56:31;;;;;;;15.95;13.77;;;;;;;17.66;nan;99967.09;5072153;28;20055;-79
2021/06/30 01:59:02;;;;;;;15.55;13.20;;;;;;;17.68;nan;99967.84;5076671;28;20040;-80
2021/06/30 02:01:30;;;;;;;16.65;14.90;;;;;;;17.64;nan;99958.28;5083318;28;20040;-80
2021/06/30 02:04:02;;;;;;;16.80;15.02;;;;;;;17.73;nan;99956.91;5069312;28;20115;-80
2021/06/30 02:06:39;;;;;;;16.45;14.85;;;;;;;17.72;nan;99947.16;5070893;28;20044;-79
2021/06/30 02:09:13;;;;;;;15.75;14.23;;;;;;;17.75;nan;99951.50;5080660;28;20433;-80
2021/06/30 02:11:44;;;;;;;15.65;14.05;;;;;;;17.71;nan;99937.44;5083478;28;20105;-79
2021/06/30 02:14:11;;;;;;;14.07;12.70;;;;;;;17.67;nan;99946.56;5075115;28;20135;-79
2021/06/30 02:16:43;;;;;;;13.25;12.05;;;;;;;17.65;nan;99937.78;5074919;28;20039;-79
2021/06/30 02:19:11;;;;;;;15.40;13.80;;;;;;;17.68;nan;99940.28;5060545;28;20102;-79
2021/06/30 02:21:43;;;;;;;15.82;14.15;;;;;;;17.72;nan;99937.34;5073707;28;20518;-80
2021/06/30 02:24:15;;;;;;;16.45;14.70;;;;;;;17.80;nan;99931.53;5078072;28;20040;-80
2021/06/30 02:26:41;;;;;;;17.48;14.32;;;;;;;17.81;nan;99930.56;5065646;28;20051;-80
2021/06/30 02:29:13;;;;;;;15.98;14.38;;;;;;;17.79;nan;99923.59;5071827;27;20068;-79
2021/06/30 02:31:44;;;;;;;16.75;15.02;;;;;;;17.80;nan;99915.50;5070211;28;20046;-80
2021/06/30 02:34:16;;;;;;;15.98;14.30;;;;;;;17.83;nan;99912.66;5075850;28;20040;-80
2021/06/30 02:36:47;;;;;;;15.88;14.05;;;;;;;17.81;nan;99917.22;5068721;28;20044;-79
2021/06/30 02:39:14;;;;;;;17.83;15.88;;;;;;;17.79;nan;99915.59;5088397;28;20041;-79
2021/06/30 02:41:46;;;;;;;18.23;16.33;;;;;;;17.78;nan;99920.09;5070347;28;20086;-80
2021/06/30 02:44:19;;;;;;;16.40;14.48;;;;;;;17.84;nan;99921.53;5084512;28;20044;-80
2021/06/30 02:46:51;;;;;;;14.85;13.30;;;;;;;17.76;nan;99916.66;5066987;28;20040;-80
2021/06/30 02:49:22;;;;;;;13.98;12.57;;;;;;;17.69;nan;99924.16;5072315;28;20496;-80
2021/06/30 02:51:54;;;;;;;15.05;13.45;;;;;;;17.65;nan;99921.75;5057439;28;20076;-80
2021/06/30 02:54:20;;;;;;;17.38;15.45;;;;;;;17.71;nan;99918.75;5077955;28;20516;-79
2021/06/30 02:56:52;;;;;;;16.05;14.45;;;;;;;17.68;nan;99926.91;5069993;28;20040;-79
2021/06/30 02:59:19;;;;;;;15.30;13.70;;;;;;;17.70;nan;99933.06;5071602;28;20102;-81
2021/06/30 03:01:50;;;;;;;15.40;13.90;;;;;;;17.75;nan;99930.13;5065890;28;20125;-79
2021/06/30 03:04:22;;;;;;;17.08;15.27;;;;;;;17.76;nan;99934.50;5075409;28;20039;-80
2021/06/30 03:06:53;;;;;;;17.52;15.65;;;;;;;17.78;nan;99943.28;5059191;28;20052;-80
2021/06/30 03:09:21;;;;;;;18.23;16.33;;;;;;;17.80;nan;99939.53;5075413;28;20033;-80
2021/06/30 03:11:53;;;;;;;16.92;15.13;;;;;;;17.83;nan;99946.53;5071370;28;20065;-78
2021/06/30 03:14:25;;;;;;;18.65;16.67;;;;;;;17.86;nan;99951.66;5082704;28;20043;-79
2021/06/30 03:16:56;;;;;;;17.98;15.90;;;;;;;17.88;nan;99952.44;5080737;28;20391;-80
2021/06/30 03:19:28;;;;;;;19.05;16.85;;;;;;;17.93;nan;99951.19;5082058;28;20463;-80
2021/06/30 03:21:54;;;;;;;17.65;15.18;;;;;;;17.93;nan;99943.19;5081583;28;20044;-79
2021/06/30 03:24:21;;;;;;;18.10;16.20;;;;;;;17.85;nan;99934.78;5059357;28;20045;-79
2021/06/30 03:26:52;;;;;;;17.08;15.35;;;;;;;17.87;nan;99940.88;5078724;28;20106;-79
2021/06/30 03:29:24;;;;;;;17.77;15.90;;;;;;;17.86;nan;99944.50;5062665;28;20055;-81
2021/06/30 03:31:55;;;;;;;15.40;13.57;;;;;;;17.89;nan;99946.97;5067164;28;20055;-81
2021/06/30 03:34:27;;;;;;;17.00;15.20;;;;;;;17.92;nan;99944.13;5085355;28;20060;-78
2021/06/30 03:36:54;;;;;;;17.30;15.35;;;;;;;17.89;nan;99941.63;5047432;28;20044;-79
2021/06/30 03:39:25;;;;;;;17.65;15.85;;;;;;;17.90;nan;99946.03;5049994;28;20063;-78
2021/06/30 03:41:57;;;;;;;17.35;15.35;;;;;;;17.95;nan;99941.28;5069532;28;20039;-80
2021/06/30 03:44:28;;;;;;;17.65;14.90;;;;;;;18.02;nan;99947.09;5078716;28;20039;-80
2021/06/30 03:47:00;;;;;;;15.70;14.02;;;;;;;18.02;nan;99947.09;5086498;28;20135;-78
2021/06/30 03:49:32;;;;;;;19.67;14.98;;;;;;;18.10;nan;99944.81;5052247;28;20406;-80
2021/06/30 03:52:04;;;;;;;18.23;15.77;;;;;;;18.07;nan;99947.66;5085389;28;20128;-79
2021/06/30 03:54:31;;;;;;;17.42;15.55;;;;;;;18.08;nan;99941.38;5063349;28;20051;-80
2021/06/30 03:57:03;;;;;;;21.80;17.45;;;;;;;18.20;nan;99935.25;5051311;28;20121;-80
2021/06/30 03:59:29;;;;;;;17.55;15.00;;;;;;;18.23;nan;99942.19;5070833;28;20052;-79
2021/06/30 04:02:01;;;;;;;20.45;16.15;;;;;;;18.29;nan;99942.66;5060514;28;20043;-80
2021/06/30 04:04:28;;;;;;;18.85;16.33;;;;;;;18.33;nan;99946.03;5067336;28;20040;-79
2021/06/30 04:06:59;;;;;;;16.67;14.95;;;;;;;18.38;nan;99935.03;5047105;28;20047;-80
2021/06/30 04:09:31;;;;;;;21.95;16.48;;;;;;;18.48;nan;99946.84;5074516;28;20048;-79
2021/06/30 04:11:58;;;;;;;17.25;15.45;;;;;;;18.50;nan;99951.16;5081665;28;20040;-81
2021/06/30 04:14:29;;;;;;;21.17;17.38;;;;;;;18.49;nan;99952.09;5050002;28;20040;-79
2021/06/30 04:16:56;;;;;;;17.10;14.95;;;;;;;18.56;nan;99958.75;5069416;28;20033;-81
2021/06/30 04:19:23;;;;;;;20.75;16.17;;;;;;;18.63;nan;99951.19;5051678;28;20046;-79
2021/06/30 04:21:54;;;;;;;17.45;14.48;;;;;;;18.62;nan;99946.81;5077606;28;20078;-79
2021/06/30 04:24:26;;;;;;;16.75;14.93;;;;;;;18.63;nan;99955.69;5084113;28;20052;-79
2021/06/30 04:26:57;;;;;;;17.27;15.52;;;;;;;18.65;nan;99961.78;5074392;28;20041;-81
2021/06/30 04:29:29;;;;;;;16.30;14.60;;;;;;;18.67;nan;99952.75;5096746;27;20130;-81
2021/06/30 04:31:55;;;;;;;16.42;14.30;;;;;;;18.69;nan;99958.88;5074929;28;20523;-79
2021/06/30 04:34:27;;;;;;;19.58;17.45;;;;;;;18.71;nan;99953.41;5072304;28;20044;-80
2021/06/30 04:36:58;;;;;;;18.70;16.70;;;;;;;18.66;nan;99944.81;5075506;28;20067;-80
2021/06/30 04:39:30;;;;;;;19.75;17.10;;;;;;;18.45;nan;99955.06;5076182;28;20527;-80
2021/06/30 04:42:02;;;;;;;19.17;16.65;;;;;;;18.49;nan;99952.09;5047439;28;20044;-79
2021/06/30 04:44:33;;;;;;;20.50;16.42;;;;;;;18.49;nan;99946.72;5069506;28;20097;-80
2021/06/30 04:47:05;;;;;;;24.77;20.48;;;;;;;18.40;nan;99943.78;5072102;28;20044;-80
2021/06/30 04:49:36;;;;;;;19.33;16.02;;;;;;;18.46;nan;99946.09;5066510;28;20045;-80
2021/06/30 04:52:08;;;;;;;19.20;16.50;;;;;;;18.49;nan;99948.53;5089004;28;20132;-79
2021/06/30 04:54:40;;;;;;;18.13;15.10;;;;;;;18.49;nan;99952.09;5072031;28;20387;-82
2021/06/30 04:57:11;;;;;;;16.90;14.32;;;;;;;18.51;nan;99963.56;5078280;28;20040;-82
2021/06/30 04:59:38;;;;;;;16.33;14.45;;;;;;;18.54;nan;99962.50;5058878;28;20055;-82
2021/06/30 05:02:09;;;;;;;17.10;15.30;;;;;;;18.61;nan;99962.97;5071976;28;20047;-82
2021/06/30 05:04:36;;;;;;;13.93;12.52;;;;;;;18.59;nan;99955.03;5077139;28;20067;-81
2021/06/30 05:07:07;;;;;;;18.63;16.65;;;;;;;18.65;nan;99957.34;5052381;28;20044;-82
2021/06/30 05:09:39;;;;;;;17.73;15.93;;;;;;;18.72;nan;99955.13;5055332;28;20043;-81
2021/06/30 05:12:11;;;;;;;16.42;14.00;;;;;;;18.71;nan;99956.09;5059608;28;20064;-81
2021/06/30 05:14:42;;;;;;;18.27;16.38;;;;;;;18.68;nan;99957.16;5069575;28;20652;-80
2021/06/30 05:17:09;;;;;;;17.55;15.48;;;;;;;18.70;nan;99952.56;5067627;28;20048;-81
2021/06/30 05:19:41;;;;;;;19.75;16.70;;;;;;;18.61;nan;99950.44;5074647;28;20046;-80
2021/06/30 05:22:12;;;;;;;17.55;15.07;;;;;;;18.64;nan;99944.03;5073327;28;20417;-79
2021/06/30 05:24:44;;;;;;;17.30;14.93;;;;;;;18.67;nan;99955.44;5097069;28;20671;-80
2021/06/30 05:27:15;;;;;;;16.95;14.48;;;;;;;18.66;nan;99958.19;5072128;28;20048;-80
2021/06/30 05:29:47;;;;;;;14.18;12.68;;;;;;;18.70;nan;99962.41;5063230;28;20071;-82
2021/06/30 05:32:18;;;;;;;16.63;14.88;;;;;;;18.74;nan;99950.53;5086689;28;20039;-79
2021/06/30 05:34:50;;;;;;;18.02;15.70;;;;;;;18.79;nan;99956.44;5091645;28;20194;-81
2021/06/30 05:37:17;;;;;;;18.30;14.38;;;;;;;18.86;nan;99954.22;5051307;28;20032;-80
2021/06/30 05:39:48;;;;;;;16.55;14.85;;;;;;;18.84;nan;99957.88;5085941;28;20043;-81
2021/06/30 05:42:20;;;;;;;16.52;13.88;;;;;;;18.87;nan;99945.25;5081031;28;20040;-80
2021/06/30 05:44:51;;;;;;;14.38;12.93;;;;;;;18.86;nan;99943.53;5086588;28;20135;-81
2021/06/30 05:47:18;;;;;;;15.15;13.65;;;;;;;18.87;nan;99945.25;5065928;28;20043;-80
2021/06/30 05:49:44;;;;;;;16.30;14.05;;;;;;;18.90;nan;99948.56;5079670;28;20055;-81
2021/06/30 05:52:16;;;;;;;15.57;13.95;;;;;;;18.90;nan;99945.03;5070179;28;20048;-80
2021/06/30 05:54:48;;;;;;;16.80;14.05;;;;;;;18.92;nan;99937.75;5072781;28;20062;-81
2021/06/30 05:57:14;;;;;;;14.45;12.95;;;;;;;18.92;nan;99940.41;5065646;28;20045;-81
2021/06/30 05:59:46;;;;;;;13.75;12.30;;;;;;;18.92;nan;99940.41;5086078;28;20040;-81
2021/06/30 06:02:17;;;;;;;19.55;15.48;;;;;;;18.98;nan;99934.66;5065130;28;20036;-81
2021/06/30 06:04:49;;;;;;;16.80;14.70;;;;;;;19.00;nan;99938.09;5073365;28;20044;-81
2021/06/30 06:07:20;;;;;;;16.23;14.52;;;;;;;18.97;nan;99939.16;5078278;28;20034;-82
2021/06/30 06:09:47;;;;;;;16.67;14.82;;;;;;;19.01;nan;99953.22;5099062;28;20040;-82
2021/06/30 06:12:18;;;;;;;15.57;13.43;;;;;;;18.97;nan;99952.53;5061732;28;20040;-82
2021/06/30 06:14:50;;;;;;;17.08;14.20;;;;;;;18.97;nan;99949.88;5087391;28;20062;-82
2021/06/30 06:17:21;;;;;;;18.45;15.27;;;;;;;19.09;nan;99958.94;5074557;28;20047;-82
2021/06/30 06:19:53;;;;;;;20.90;16.63;;;;;;;19.16;nan;99948.63;5087319;28;20839;-83
2021/06/30 06:22:20;;;;;;;17.85;15.45;;;;;;;19.10;nan;99955.28;5069645;28;20048;-80
2021/06/30 06:24:46;;;;;;;15.82;14.20;;;;;;;19.04;nan;99953.88;5072097;28;20036;-82
2021/06/30 06:27:13;;;;;;;17.90;15.30;;;;;;;19.01;nan;99953.22;5051482;28;20052;-81
2021/06/30 06:29:48;;;;;;;15.93;14.00;;;;;;;18.96;nan;99945.47;5052249;28;20051;-82
2021/06/30 06:32:20;;;;;;;18.60;15.88;;;;;;;19.01;nan;99946.06;5053817;28;20049;-82
2021/06/30 06:34:52;;;;;;;18.17;16.05;;;;;;;19.02;nan;99953.13;5070950;28;20501;-82
2021/06/30 06:37:23;;;;;;;17.50;15.75;;;;;;;19.02;nan;99942.41;5072024;28;20045;-82
2021/06/30 06:39:56;;;;;;;16.33;14.52;;;;;;;19.02;nan;99939.72;5065711;28;20040;-83
2021/06/30 06:42:31;;;;;;;16.95;14.63;;;;;;;19.01;nan;99942.50;5065499;28;20041;-82
2021/06/30 06:45:03;;;;;;;19.58;16.23;;;;;;;19.04;nan;99934.25;5063554;28;20043;-81
2021/06/30 06:47:35;;;;;;;20.70;17.13;;;;;;;19.10;nan;99929.38;5086121;28;20043;-82
2021/06/30 06:50:03;;;;;;;19.25;16.45;;;;;;;19.12;nan;99924.75;5054281;28;20040;-83
2021/06/30 06:52:30;;;;;;;22.20;18.45;;;;;;;19.13;nan;99921.13;5054925;28;20044;-82
2021/06/30 06:55:03;;;;;;;18.58;16.10;;;;;;;19.11;nan;99922.19;5084356;28;20043;-81
2021/06/30 06:57:35;;;;;;;20.13;17.83;;;;;;;19.09;nan;99919.63;5061179;28;20052;-81
2021/06/30 07:00:07;;;;;;;21.55;18.27;;;;;;;19.07;nan;99901.91;5085323;28;20063;-81
2021/06/30 07:02:34;;;;;;;19.80;16.85;;;;;;;19.16;nan;99903.97;5081918;28;20046;-82
2021/06/30 07:05:06;;;;;;;19.92;16.23;;;;;;;19.11;nan;99898.94;5069986;28;20040;-81
2021/06/30 07:07:40;;;;;;;21.10;17.55;;;;;;;19.20;nan;99901.97;5062307;28;20041;-81
2021/06/30 07:10:12;;;;;;;21.90;18.10;;;;;;;19.24;nan;99903.44;5068036;28;20055;-79
2021/06/30 07:12:44;;;;;;;23.73;17.77;;;;;;;19.03;nan;99909.31;5054162;28;20434;-81
2021/06/30 07:15:11;;;;;;;21.48;17.70;;;;;;;19.13;nan;99910.41;5068677;28;20044;-83
2021/06/30 07:17:43;;;;;;;20.92;17.98;;;;;;;19.17;nan;99905.72;5054610;28;20048;-83
2021/06/30 07:20:10;;;;;;;17.48;15.57;;;;;;;19.12;nan;99905.16;5055053;28;20513;-82
2021/06/30 07:22:41;;;;;;;21.00;18.73;;;;;;;19.21;nan;99917.06;5057309;28;20631;-84
2021/06/30 07:25:14;;;;;;;22.33;17.80;;;;;;;19.24;nan;99914.16;5055760;28;20036;-82
2021/06/30 07:27:46;;;;;;;21.77;17.65;;;;;;;19.28;nan;99913.88;5058421;28;20035;-83
2021/06/30 07:30:17;;;;;;;18.80;16.60;;;;;;;19.14;nan;99900.56;5049015;28;20040;-83
2021/06/30 07:32:49;;;;;;;21.67;19.23;;;;;;;19.14;nan;99905.91;5053655;28;20503;-82
2021/06/30 07:35:16;;;;;;;24.30;20.25;;;;;;;19.17;nan;99908.41;5049877;28;20041;-82
2021/06/30 07:37:48;;;;;;;21.67;17.85;;;;;;;19.12;nan;99914.03;5080830;28;20033;-83
2021/06/30 07:40:20;;;;;;;19.27;17.10;;;;;;;19.16;nan;99909.31;5045284;28;20572;-82
2021/06/30 07:42:52;;;;;;;21.95;18.77;;;;;;;19.33;nan;99914.38;5071966;28;20036;-82
2021/06/30 07:45:24;;;;;;;22.02;18.13;;;;;;;19.36;nan;99918.69;5070981;28;20040;-82
2021/06/30 07:47:51;;;;;;;22.02;18.38;;;;;;;19.35;nan;99908.94;5069894;28;20044;-82
2021/06/30 07:50:18;;;;;;;18.85;15.98;;;;;;;19.42;nan;99904.88;5052672;28;20090;-82
2021/06/30 07:52:48;;;;;;;20.88;18.02;;;;;;;19.35;nan;99904.44;5061176;28;20036;-81
2021/06/30 07:55:16;;;;;;;20.70;17.60;;;;;;;19.42;nan;99896.81;5070076;28;20043;-81
2021/06/30 07:57:43;;;;;;;19.52;17.25;;;;;;;19.48;nan;99904.44;5047985;28;20033;-80
2021/06/30 08:00:11;;;;;;;20.98;18.15;;;;;;;19.48;nan;99911.63;5070931;28;20058;-83
2021/06/30 08:02:39;;;;;;;18.20;16.17;;;;;;;19.43;nan;99908.44;5064217;28;20067;-82
2021/06/30 08:05:07;;;;;;;21.15;17.65;;;;;;;19.35;nan;99909.81;5072129;28;20409;-81
2021/06/30 08:07:34;;;;;;;18.48;15.80;;;;;;;19.38;nan;99911.41;5083655;28;20040;-78
2021/06/30 08:10:02;;;;;;;20.42;17.15;;;;;;;19.44;nan;99911.00;5099474;27;20036;-80
2021/06/30 08:12:29;;;;;;;19.35;17.27;;;;;;;19.36;nan;99921.38;5079660;28;20043;-79
2021/06/30 08:14:56;;;;;;;23.33;17.75;;;;;;;19.44;nan;99924.38;5084232;28;20044;-79
2021/06/30 08:17:22;;;;;;;19.70;16.38;;;;;;;19.43;nan;99920.00;5057875;28;20048;-81
2021/06/30 08:19:49;;;;;;;23.17;18.58;;;;;;;19.59;nan;99923.38;5055586;28;20104;-80
2021/06/30 08:22:16;;;;;;;22.15;18.02;;;;;;;19.55;nan;99913.78;5076428;28;20055;-81
2021/06/30 08:24:43;;;;;;;22.25;18.88;;;;;;;19.49;nan;99914.19;5064435;28;20037;-83
2021/06/30 08:27:12;;;;;;;19.33;17.23;;;;;;;19.57;nan;99919.91;5072834;28;20040;-81
2021/06/30 08:29:41;;;;;;;20.15;17.70;;;;;;;19.60;nan;99908.16;5064646;28;20542;-81
2021/06/30 08:32:08;;;;;;;20.65;18.40;;;;;;;19.60;nan;99914.38;5069945;28;20070;-81
2021/06/30 08:34:35;;;;;;;18.95;16.95;;;;;;;19.64;nan;99920.34;5071488;28;20071;-82
2021/06/30 08:37:05;;;;;;;19.00;16.92;;;;;;;19.67;nan;99921.00;5050216;28;20047;-78
2021/06/30 08:39:32;;;;;;;20.60;18.00;;;;;;;19.72;nan;99917.13;5072949;28;20040;-78
2021/06/30 08:41:59;;;;;;;25.52;18.98;;;;;;;19.71;nan;99920.78;5080628;28;20045;-80
2021/06/30 08:44:26;;;;;;;22.05;17.73;;;;;;;19.59;nan;99912.66;5073869;28;20062;-81
2021/06/30 08:46:57;;;;;;;20.75;17.67;;;;;;;19.55;nan;99911.09;5066268;28;20074;-80
2021/06/30 08:49:26;;;;;;;19.63;17.50;;;;;;;19.51;nan;99917.66;5059515;28;20048;-79
2021/06/30 08:51:54;;;;;;;21.92;18.02;;;;;;;19.48;nan;99922.34;5067279;28;20046;-81
2021/06/30 08:54:22;;;;;;;21.38;17.80;;;;;;;19.52;nan;99921.19;5051394;28;20036;-80
2021/06/30 08:56:50;;;;;;;21.70;18.60;;;;;;;19.44;nan;99927.06;5046653;28;20409;-78
2021/06/30 08:59:17;;;;;;;19.83;17.73;;;;;;;19.40;nan;99925.53;5060906;28;20055;-79
2021/06/30 09:01:45;;;;;;;21.27;18.58;;;;;;;19.42;nan;99937.00;5057603;28;20413;-79
2021/06/30 09:04:13;;;;;;;18.70;16.33;;;;;;;19.34;nan;99942.91;5059556;28;20125;-80
2021/06/30 09:06:40;;;;;;;22.13;19.80;;;;;;;19.39;nan;99953.31;5078224;28;20041;-81
2021/06/30 09:09:10;;;;;;;18.15;16.25;;;;;;;19.34;nan;99944.75;5083528;28;20044;-78
2021/06/30 09:11:37;;;;;;;23.08;19.27;;;;;;;19.39;nan;99947.94;5043303;28;20060;-81
2021/06/30 09:14:16;;;;;;;19.13;16.40;;;;;;;19.45;nan;99946.69;5083213;28;20057;-80
2021/06/30 09:17:36;;;;;;;21.17;18.88;;;;;;;19.55;nan;99953.97;5077996;28;20086;-79
2021/06/30 09:19:58;;;;;;;21.15;18.65;;;;;;;19.53;nan;99955.03;5078380;28;20051;-80
2021/06/30 09:22:27;;;;;;;19.80;17.70;;;;;;;19.62;nan;99955.31;5081227;28;20413;-82
2021/06/30 09:24:55;;;;;;;18.80;15.75;;;;;;;19.71;nan;99948.44;5063474;28;20094;-80
2021/06/30 09:27:37;;;;;;;18.70;16.70;;;;;;;19.75;nan;99951.75;5052468;28;20230;-83
2021/06/30 09:30:07;;;;;;;19.67;17.43;;;;;;;19.89;nan;99948.97;5065668;28;20040;-84
2021/06/30 09:32:34;;;;;;;16.65;14.68;;;;;;;19.89;nan;99938.25;5072479;28;20651;-81
2021/06/30 09:35:18;;;;;;;18.48;16.55;;;;;;;20.01;nan;99940.09;5055110;28;20514;-81
2021/06/30 09:37:48;;;;;;;16.92;15.13;;;;;;;19.98;nan;99940.28;5083428;28;20062;-81
2021/06/30 09:40:16;;;;;;;19.90;15.70;;;;;;;20.13;nan;99944.56;5066981;28;20117;-83
2021/06/30 09:42:43;;;;;;;17.13;14.05;;;;;;;20.24;nan;99936.59;5074876;28;20486;-81
2021/06/30 09:45:12;;;;;;;15.93;14.07;;;;;;;20.31;nan;99937.00;5068053;28;20094;-82
2021/06/30 09:47:44;;;;;;;18.08;15.70;;;;;;;20.32;nan;99932.50;5050787;28;20067;-81
2021/06/30 09:50:11;;;;;;;15.70;13.95;;;;;;;20.41;nan;99943.41;5079633;28;20036;-82
2021/06/30 09:52:41;;;;;;;16.50;14.75;;;;;;;20.59;nan;99935.03;5073641;28;20067;-79
2021/06/30 09:55:31;;;;;;;17.58;14.93;;;;;;;20.48;nan;99933.13;5072882;28;20082;-82
2021/06/30 09:57:59;;;;;;;15.13;13.52;;;;;;;20.35;nan;99940.34;5067712;28;20040;-84
2021/06/30 10:00:28;;;;;;;16.73;15.02;;;;;;;20.45;nan;99934.22;5069864;28;20074;-84
2021/06/30 10:02:56;;;;;;;16.40;14.70;;;;;;;20.56;nan;99933.44;5077144;28;20044;-81
2021/06/30 10:05:28;;;;;;;16.73;14.30;;;;;;;20.71;nan;99929.63;5063982;28;20456;-80
2021/06/30 10:08:14;;;;;;;14.52;13.02;;;;;;;20.69;nan;99918.16;5090993;28;20683;-79
2021/06/30 10:10:42;;;;;;;17.58;14.15;;;;;;;20.74;nan;99924.00;5055987;28;20051;-81
2021/06/30 10:13:09;;;;;;;16.48;14.75;;;;;;;20.61;nan;99925.91;5071755;28;20085;-84
2021/06/30 10:15:39;;;;;;;14.13;12.63;;;;;;;20.45;nan;99923.50;5065935;28;20131;-82
2021/06/30 10:18:06;;;;;;;17.38;14.63;;;;;;;20.39;nan;99931.94;5072670;28;20033;-80
2021/06/30 10:20:40;;;;;;;18.48;16.58;;;;;;;20.33;nan;99928.84;5078544;28;20037;-84
2021/06/30 10:23:07;;;;;;;18.10;16.20;;;;;;;20.09;nan;99937.69;5048447;28;20040;-82
2021/06/30 10:25:35;;;;;;;14.70;13.20;;;;;;;20.11;nan;99918.81;5066670;28;20044;-82
2021/06/30 10:28:02;;;;;;;16.17;14.48;;;;;;;20.21;nan;99922.56;5058752;28;20044;-83
2021/06/30 10:30:28;;;;;;;16.95;14.70;;;;;;;20.22;nan;99919.75;5065646;28;20424;-83
2021/06/30 10:32:57;;;;;;;22.52;16.88;;;;;;;20.16;nan;99911.28;5070061;28;20039;-80
2021/06/30 10:35:25;;;;;;;16.13;14.43;;;;;;;20.10;nan;99901.88;5068874;28;20044;-81
2021/06/30 10:37:54;;;;;;;16.08;14.48;;;;;;;20.09;nan;99900.13;5050801;28;20036;-82
2021/06/30 10:40:22;;;;;;;16.60;14.90;;;;;;;20.09;nan;99901.97;5061316;28;20036;-81
2021/06/30 10:43:08;;;;;;;19.13;16.85;;;;;;;20.13;nan;99900.78;5064612;28;20048;-81
2021/06/30 10:45:35;;;;;;;17.42;15.63;;;;;;;19.87;nan;99899.97;5094629;28;20048;-81
2021/06/30 10:48:07;;;;;;;18.38;15.50;;;;;;;19.90;nan;99908.66;5057052;28;20413;-80
2021/06/30 10:50:46;;;;;;;17.55;15.57;;;;;;;19.82;nan;99907.47;5053453;28;20048;-80
2021/06/30 10:53:15;;;;;;;19.15;16.48;;;;;;;19.85;nan;99900.09;5054444;28;20044;-82
2021/06/30 10:55:51;;;;;;;17.15;15.35;;;;;;;19.82;nan;99902.97;5078055;28;20500;-82
2021/06/30 10:58:24;;;;;;;18.55;16.35;;;;;;;19.82;nan;99912.84;5079712;28;20072;-81
2021/06/30 11:00:54;;;;;;;18.00;16.10;;;;;;;19.85;nan;99918.00;5078930;28;20089;-81
2021/06/30 11:03:44;;;;;;;16.38;14.65;;;;;;;19.80;nan;99922.81;5098919;27;20040;-80
2021/06/30 11:06:17;;;;;;;19.83;16.67;;;;;;;19.78;nan;99925.63;5076941;28;20040;-81
2021/06/30 11:09:04;;;;;;;20.93;16.70;;;;;;;19.84;nan;99922.50;5081797;28;20039;-80
2021/06/30 11:11:34;;;;;;;18.83;16.63;;;;;;;19.83;nan;99926.13;5062360;28;20040;-82
2021/06/30 11:14:01;;;;;;;19.05;15.65;;;;;;;19.82;nan;99912.84;5079021;28;20047;-82
2021/06/30 11:16:41;;;;;;;18.83;15.75;;;;;;;19.81;nan;99920.03;5080140;28;20044;-80
2021/06/30 11:19:30;;;;;;;18.75;16.67;;;;;;;19.79;nan;99913.91;5082379;28;20035;-80
2021/06/30 11:21:59;;;;;;;18.20;16.30;;;;;;;19.88;nan;99920.47;5058365;28;20417;-79
2021/06/30 11:24:35;;;;;;;15.60;14.00;;;;;;;19.81;nan;99911.97;5062501;28;20121;-81
2021/06/30 11:27:16;;;;;;;14.13;12.68;;;;;;;19.81;nan;99901.25;5056212;28;20097;-81
2021/06/30 11:29:46;;;;;;;18.83;16.17;;;;;;;19.91;nan;99912.19;5080292;28;20110;-81
2021/06/30 11:32:31;;;;;;;16.67;14.98;;;;;;;19.95;nan;99911.88;5101621;27;20079;-80
2021/06/30 11:35:05;;;;;;;14.75;13.25;;;;;;;19.92;nan;99909.38;5062390;28;20073;-81
2021/06/30 11:37:31;;;;;;;18.30;16.40;;;;;;;20.02;nan;99906.09;5060213;28;20055;-81
2021/06/30 11:40:04;;;;;;;15.35;13.68;;;;;;;19.97;nan;99914.44;5065527;28;20052;-82
2021/06/30 11:42:40;;;;;;;17.17;15.35;;;;;;;19.74;nan;99909.84;5063620;28;20418;-81
2021/06/30 11:45:17;;;;;;;16.15;13.73;;;;;;;19.82;nan;99904.78;5048863;28;20048;-82
2021/06/30 11:47:50;;;;;;;14.68;13.23;;;;;;;19.93;nan;99908.44;5062831;28;20173;-80